Detall de PIREP

Printer-friendly versionPDF version

[2017/07/06 12:11:00]
Flight IATA:CT0001
Pilot Number:042
Company ICAO:CAT
Aircraft Type:BE58/A
PAX:3
Departing Airport: LEPA
Destination Airport: LEIB
Alternate Airport:LEVC
Online: VATSIM
Route:DCT
Flight Level:F030
No Slew and time accel
No pause
Crash detect
Detect pilot in Cockpit between each 30 and 45 minutes
12:11 Zero fuel Weight: 4592 Lbs, Fuel Weight: 753 Lbs
12:11 VATSIM:LEPA 061200Z 22008KT 190V260 9999 FEW025 31/21 Q1017 NOSIG
12:11 VATSIM:LEIB 061200Z 08014KT 050V110 CAVOK 29/22 Q1016 NOSIG
12:13 Parking Brakes off
12:16 Take-off
12:16 Take off Weight: 5343 Lbs
12:16 Wind: 000º @ 000 Knots Heading: 236º
12:16 POS N39º 33´ 20´´ E002º 43´ 44´´
12:16 Flaps:1 at 99 Knots
12:16 Flaps:0 at 98 Knots
12:18 TOC
12:18 Fuel Weight: 743 Lb
12:31 Wind:270º@021 Knots Heading: 245º Ground Speed: 121 Knots Altitude 9330 ft
12:46 Wind:326º@007 Knots Heading: 242º Ground Speed: 137 Knots Altitude 4507 ft
12:47 Flaps:1 at 144 Knots
12:48 Flaps:2 at 135 Knots
12:48 TOD
12:48 Fuel Weight: 661 Lb
12:51 TouchDown:Rate -310 ft/min Speed: 74 Knots
12:51 VATSIM:LEIB 061300Z 08012KT 050V110 CAVOK 29/22 Q1016 NOSIG
12:51 Land
12:51 Wind:000º@000 Knots
12:51 Heading: 243º
12:51 Flight Duration: 00:35
12:51 Landing Weight: 5248 Lbs
12:51 POS N38º 52´ 25´´ E001º 22´ 32´´
12:53 Parking brakes on
12:53 Block to Block Duration: 00:40
12:53 Final Fuel: 654 Lbls
12:53 Spent Fuel: 99 Lbls
12:53 Flight Length: 75 NM
12:53 TOD Land Length: 05 NM

Exportar CSV

Powered by Drupal - Modified by Danger4k